Time;durP1;ratioP1;P1;durP2;ratioP2;P2;SDS_P1;SDS_P2;PMS_P1;PMS_P2;Temp;Humidity;BMP_temperature;BMP_pressure;BME280_temperature;BME280_humidity;BME280_pressure;Samples;Min_cycle;Max_cycle;Signal;HPM_P1;HPM_P2
2022/07/20 00:00:17;;;;;;;5.70;5.30;;;24.50;1.00;;;;;;6355061;22;20529;-79
2022/07/20 00:02:45;;;;;;;7.63;6.13;;;24.50;1.00;;;;;;6356816;22;20393;-75
2022/07/20 00:05:16;;;;;;;5.83;5.33;;;24.50;1.00;;;;;;6355572;22;20389;-79
2022/07/20 00:07:43;;;;;;;10.03;6.10;;;24.40;1.00;;;;;;6353808;22;21051;-76
2022/07/20 00:12:58;;;;;;;6.30;5.70;;;24.30;1.00;;;;;;6356119;22;20401;-77
2022/07/20 00:15:26;;;;;;;7.03;5.73;;;24.30;1.00;;;;;;6354280;22;20886;-78
2022/07/20 00:17:58;;;;;;;7.70;5.50;;;24.20;1.00;;;;;;6354126;22;20413;-77
2022/07/20 00:20:27;;;;;;;9.87;6.07;;;24.20;1.00;;;;;;6354790;22;20505;-76
2022/07/20 00:22:58;;;;;;;6.33;5.73;;;24.20;1.00;;;;;;6352139;22;20417;-75
2022/07/20 00:25:26;;;;;;;7.27;6.20;;;24.20;1.00;;;;;;6355209;22;20410;-78
2022/07/20 00:28:00;;;;;;;7.00;6.30;;;24.20;1.00;;;;;;6355053;22;20524;-80
2022/07/20 00:30:29;;;;;;;6.30;5.70;;;24.20;1.00;;;;;;6355355;22;20474;-77
2022/07/20 00:32:55;;;;;;;9.03;6.80;;;24.10;1.00;;;;;;6353501;22;20919;-77
2022/07/20 00:35:22;;;;;;;6.27;5.63;;;24.10;1.00;;;;;;6352493;22;20489;-75
2022/07/20 00:37:49;;;;;;;6.23;5.73;;;24.10;1.00;;;;;;6351566;22;21202;-76
2022/07/20 00:40:19;;;;;;;6.00;5.50;;;24.10;1.00;;;;;;6354442;22;20508;-78
2022/07/20 00:42:48;;;;;;;6.20;5.70;;;24.00;1.00;;;;;;6356503;22;20471;-77
2022/07/20 00:45:18;;;;;;;6.47;5.87;;;24.00;1.00;;;;;;6354357;22;20385;-80
2022/07/20 00:47:48;;;;;;;7.50;6.00;;;24.00;1.00;;;;;;6356424;22;20800;-75
2022/07/20 00:50:19;;;;;;;6.20;5.60;;;24.00;1.00;;;;;;6353561;22;20378;-78
2022/07/20 00:52:48;;;;;;;8.43;5.30;;;24.00;1.00;;;;;;6324821;22;20425;-79
2022/07/20 00:55:18;;;;;;;7.40;6.37;;;23.90;1.00;;;;;;6357310;22;20394;-80
2022/07/20 00:57:45;;;;;;;6.97;6.37;;;23.90;1.00;;;;;;6355967;22;20432;-79
2022/07/20 01:00:14;;;;;;;6.90;6.23;;;23.90;1.00;;;;;;6351798;22;20420;-77
2022/07/20 01:02:42;;;;;;;7.03;6.37;;;23.80;1.00;;;;;;6350499;22;20441;-79
2022/07/20 01:05:13;;;;;;;7.50;6.73;;;23.90;1.00;;;;;;6347417;22;20413;-78
2022/07/20 01:07:42;;;;;;;12.57;6.57;;;23.80;1.00;;;;;;6354549;22;20843;-80
2022/07/20 01:10:09;;;;;;;7.83;6.43;;;23.80;1.00;;;;;;6353715;22;20413;-76
2022/07/20 01:12:38;;;;;;;9.10;6.17;;;23.80;1.00;;;;;;6356087;22;20385;-79
2022/07/20 01:15:06;;;;;;;6.20;5.70;;;23.80;1.00;;;;;;6353592;22;20433;-77
2022/07/20 01:17:38;;;;;;;6.70;6.10;;;23.70;1.00;;;;;;6352685;22;20465;-74
2022/07/20 01:20:06;;;;;;;7.67;6.27;;;23.70;1.00;;;;;;6354584;22;20410;-78
2022/07/20 01:22:40;;;;;;;6.90;6.07;;;23.70;1.00;;;;;;6353926;22;20389;-79
2022/07/20 01:25:07;;;;;;;8.53;7.03;;;23.70;1.00;;;;;;6354450;22;20405;-75
2022/07/20 01:27:38;;;;;;;7.90;6.80;;;23.60;1.00;;;;;;6355578;22;20457;-78
2022/07/20 01:30:06;;;;;;;6.23;5.73;;;23.60;1.00;;;;;;6353939;22;20901;-81
2022/07/20 01:32:38;;;;;;;7.07;6.37;;;23.60;1.00;;;;;;6355326;22;20432;-77
2022/07/20 01:35:09;;;;;;;7.60;6.70;;;23.50;1.00;;;;;;6352335;22;20415;-76
2022/07/20 01:37:36;;;;;;;8.30;7.50;;;23.50;1.00;;;;;;6340276;22;20418;-78
2022/07/20 01:40:09;;;;;;;6.53;5.77;;;23.50;1.00;;;;;;6336399;22;20436;-79
2022/07/20 01:42:38;;;;;;;6.80;6.20;;;23.40;1.00;;;;;;6352913;22;20396;-75
2022/07/20 01:45:08;;;;;;;6.60;5.83;;;23.40;1.00;;;;;;6352292;22;20376;-78
2022/07/20 01:47:35;;;;;;;6.70;6.10;;;23.40;1.00;;;;;;6338511;22;20413;-78
2022/07/20 01:50:03;;;;;;;7.80;6.53;;;23.30;1.00;;;;;;6354378;22;20544;-78
2022/07/20 01:52:30;;;;;;;7.73;6.90;;;23.30;1.00;;;;;;6355228;22;20443;-78
2022/07/20 01:54:57;;;;;;;7.07;6.37;;;23.20;1.00;;;;;;6333656;22;20385;-78
2022/07/20 01:57:31;;;;;;;7.80;6.73;;;23.20;1.00;;;;;;6353210;22;20398;-78
2022/07/20 01:59:58;;;;;;;7.50;6.70;;;23.20;1.00;;;;;;6354960;22;20409;-78
2022/07/20 02:02:28;;;;;;;7.30;6.60;;;23.20;1.00;;;;;;6350902;22;20385;-79
2022/07/20 02:04:55;;;;;;;6.90;6.30;;;23.10;1.00;;;;;;6333658;22;20423;-78
2022/07/20 02:07:26;;;;;;;8.17;6.93;;;23.10;1.00;;;;;;6340431;22;20453;-78
2022/07/20 02:09:54;;;;;;;7.40;6.80;;;23.10;1.00;;;;;;6335844;22;20416;-78
2022/07/20 02:12:20;;;;;;;6.70;6.10;;;23.10;1.00;;;;;;6345441;22;20400;-75
2022/07/20 02:14:50;;;;;;;7.27;6.57;;;23.00;1.00;;;;;;6342972;22;20393;-78
2022/07/20 02:17:18;;;;;;;6.70;6.10;;;23.00;1.00;;;;;;6352294;22;20427;-80
2022/07/20 02:19:45;;;;;;;7.63;6.93;;;23.00;1.00;;;;;;6351165;22;20418;-78
2022/07/20 02:22:12;;;;;;;12.47;8.10;;;22.90;1.00;;;;;;6352362;22;20416;-75
2022/07/20 02:24:43;;;;;;;7.33;6.57;;;22.80;1.00;;;;;;6355018;22;20472;-75
2022/07/20 02:27:11;;;;;;;8.33;7.63;;;22.70;1.00;;;;;;6354126;22;20409;-78
2022/07/20 02:29:38;;;;;;;8.17;7.37;;;22.70;1.00;;;;;;6356012;22;20431;-77
2022/07/20 02:32:07;;;;;;;8.53;7.73;;;22.70;1.00;;;;;;6354359;22;20407;-77
2022/07/20 02:34:43;;;;;;;8.90;7.37;;;22.70;1.00;;;;;;6355739;22;20414;-74
2022/07/20 02:37:10;;;;;;;9.47;8.47;;;22.60;1.00;;;;;;6314424;22;20437;-79
2022/07/20 02:39:38;;;;;;;9.80;7.50;;;22.60;1.00;;;;;;6356202;22;20409;-76
2022/07/20 02:42:06;;;;;;;8.20;7.50;;;22.50;1.00;;;;;;6352529;22;20448;-78
2022/07/20 02:44:38;;;;;;;7.57;6.90;;;22.50;1.00;;;;;;6354993;22;20500;-78
2022/07/20 02:47:06;;;;;;;8.40;7.60;;;22.60;1.00;;;;;;6354589;22;21162;-78
2022/07/20 02:49:38;;;;;;;7.97;7.17;;;22.50;1.00;;;;;;6357083;22;20456;-78
2022/07/20 02:52:05;;;;;;;7.13;6.43;;;22.50;1.00;;;;;;6353378;22;20417;-77
2022/07/20 02:54:35;;;;;;;9.83;8.93;;;22.40;1.00;;;;;;6354309;22;20411;-79
2022/07/20 02:57:02;;;;;;;9.23;7.50;;;22.40;1.00;;;;;;6354320;22;20393;-77
2022/07/20 02:59:28;;;;;;;7.43;6.70;;;22.40;1.00;;;;;;6354554;22;20500;-75
2022/07/20 03:01:59;;;;;;;8.60;7.80;;;22.40;1.00;;;;;;6353943;22;20449;-77
2022/07/20 03:04:28;;;;;;;8.67;7.87;;;22.40;1.00;;;;;;6354590;22;20982;-78
2022/07/20 03:06:58;;;;;;;7.90;7.20;;;22.40;1.00;;;;;;6350725;22;20564;-78
2022/07/20 03:09:25;;;;;;;8.40;7.67;;;22.30;1.00;;;;;;6354090;22;20448;-78
2022/07/20 03:11:53;;;;;;;9.23;7.47;;;22.30;1.00;;;;;;6354090;22;20861;-78
2022/07/20 03:14:21;;;;;;;8.20;7.40;;;22.20;1.00;;;;;;6350173;22;20418;-79
2022/07/20 03:16:50;;;;;;;8.83;7.87;;;22.20;1.00;;;;;;6336495;22;20776;-79
2022/07/20 03:19:19;;;;;;;8.23;7.40;;;22.10;1.00;;;;;;6355456;22;20399;-78
2022/07/20 03:21:47;;;;;;;8.53;7.73;;;22.10;1.00;;;;;;6356893;22;20459;-80
2022/07/20 03:24:21;;;;;;;8.60;7.70;;;22.10;1.00;;;;;;6357115;22;20405;-79
2022/07/20 03:26:47;;;;;;;8.10;7.40;;;22.00;1.00;;;;;;6338913;22;20421;-79
2022/07/20 03:29:18;;;;;;;7.63;6.93;;;22.00;1.00;;;;;;6356658;22;20374;-79
2022/07/20 03:31:45;;;;;;;11.23;7.40;;;22.00;1.00;;;;;;6354735;22;20503;-78
2022/07/20 03:34:17;;;;;;;9.97;8.20;;;22.00;1.00;;;;;;6356112;22;20420;-79
2022/07/20 03:36:44;;;;;;;12.07;8.83;;;21.90;1.00;;;;;;6357915;22;20498;-80
2022/07/20 03:39:21;;;;;;;12.10;8.07;;;21.90;1.00;;;;;;6355848;22;21028;-78
2022/07/20 03:41:49;;;;;;;12.13;8.80;;;21.90;1.00;;;;;;6352831;22;20433;-79
2022/07/20 03:44:17;;;;;;;8.57;7.70;;;21.90;1.00;;;;;;6348899;22;20505;-78
2022/07/20 03:46:49;;;;;;;14.40;8.70;;;21.90;1.00;;;;;;6340869;22;20389;-78
2022/07/20 03:49:15;;;;;;;8.57;7.77;;;21.90;1.00;;;;;;6337762;22;20414;-78
2022/07/20 03:51:42;;;;;;;12.20;8.20;;;21.90;1.00;;;;;;6353481;22;20456;-78
2022/07/20 03:54:09;;;;;;;13.67;8.07;;;21.90;1.00;;;;;;6355052;22;20486;-77
2022/07/20 03:56:41;;;;;;;18.90;11.10;;;21.90;1.00;;;;;;6354951;22;20397;-76
2022/07/20 03:59:08;;;;;;;9.90;7.67;;;21.80;1.00;;;;;;6337636;22;20853;-78
2022/07/20 04:01:42;;;;;;;9.80;8.07;;;21.80;1.00;;;;;;6356408;22;20399;-79
2022/07/20 04:04:11;;;;;;;9.23;8.37;;;21.90;1.00;;;;;;6351922;22;20562;-78
2022/07/20 04:06:39;;;;;;;12.60;8.53;;;21.90;1.00;;;;;;6356915;22;20411;-78
2022/07/20 04:09:06;;;;;;;9.43;8.20;;;21.90;1.00;;;;;;6353581;22;20385;-76
2022/07/20 04:11:35;;;;;;;10.43;8.27;;;21.90;1.00;;;;;;6353947;22;20442;-75
2022/07/20 04:14:05;;;;;;;9.20;8.27;;;21.90;1.00;;;;;;6352633;22;20409;-76
2022/07/20 04:16:33;;;;;;;9.30;8.30;;;21.90;1.00;;;;;;6354283;22;20504;-77
2022/07/20 04:19:00;;;;;;;8.33;7.57;;;21.90;1.00;;;;;;6353245;22;20409;-80
2022/07/20 04:21:27;;;;;;;8.40;7.60;;;21.90;1.00;;;;;;6356081;22;20425;-77
2022/07/20 04:23:59;;;;;;;9.90;8.80;;;21.90;1.00;;;;;;6352086;22;20481;-78
2022/07/20 04:26:25;;;;;;;11.80;8.70;;;21.90;1.00;;;;;;6355172;22;20436;-78
2022/07/20 04:28:57;;;;;;;10.40;7.40;;;21.80;1.00;;;;;;6354679;22;20421;-78
2022/07/20 04:31:25;;;;;;;10.77;8.03;;;21.80;1.00;;;;;;6335861;22;20492;-76
2022/07/20 04:33:52;;;;;;;13.07;9.93;;;21.90;1.00;;;;;;6354243;22;20496;-78
2022/07/20 04:36:19;;;;;;;10.93;9.90;;;21.90;1.00;;;;;;6315650;22;20428;-78
2022/07/20 04:38:46;;;;;;;8.50;7.80;;;21.90;1.00;;;;;;6357061;22;20385;-77
2022/07/20 04:41:13;;;;;;;10.07;8.87;;;22.00;1.00;;;;;;6355651;22;20440;-78
2022/07/20 04:43:40;;;;;;;10.33;9.13;;;22.10;1.00;;;;;;6357432;22;20467;-76
2022/07/20 04:46:08;;;;;;;9.40;8.50;;;22.10;1.00;;;;;;6352171;22;20909;-78
2022/07/20 04:48:39;;;;;;;11.97;8.80;;;22.20;1.00;;;;;;6356168;22;20393;-79
2022/07/20 04:51:06;;;;;;;10.57;9.53;;;22.20;1.00;;;;;;6355792;22;20418;-79
2022/07/20 04:53:38;;;;;;;9.10;8.30;;;22.20;1.00;;;;;;6356721;22;20439;-78
2022/07/20 04:56:06;;;;;;;9.77;8.40;;;22.20;1.00;;;;;;6348144;22;20417;-76
2022/07/20 04:58:38;;;;;;;11.30;8.60;;;22.20;1.00;;;;;;6349524;22;20504;-79
2022/07/20 05:01:05;;;;;;;9.37;8.20;;;22.30;1.00;;;;;;6353766;22;20424;-80
2022/07/20 05:03:32;;;;;;;12.13;10.90;;;22.30;1.00;;;;;;6357599;22;20409;-80
2022/07/20 05:06:04;;;;;;;11.43;9.37;;;22.40;1.00;;;;;;6353109;22;20449;-80
2022/07/20 05:08:35;;;;;;;8.80;8.00;;;22.40;1.00;;;;;;6355629;22;20475;-76
2022/07/20 05:11:04;;;;;;;10.47;8.97;;;22.40;1.00;;;;;;6337883;22;20459;-79
2022/07/20 05:13:31;;;;;;;9.80;8.80;;;22.50;1.00;;;;;;6357051;22;20405;-77
2022/07/20 05:15:59;;;;;;;10.03;9.13;;;22.60;1.00;;;;;;6354964;22;20453;-78
2022/07/20 05:18:26;;;;;;;11.03;9.27;;;22.70;1.00;;;;;;6353951;22;20428;-79
2022/07/20 05:20:57;;;;;;;11.87;10.43;;;22.70;1.00;;;;;;6329803;22;20397;-78
2022/07/20 05:23:27;;;;;;;9.20;8.43;;;22.80;1.00;;;;;;6354300;22;20416;-78
2022/07/20 05:25:59;;;;;;;14.40;9.63;;;22.90;1.00;;;;;;6355584;22;20389;-77
2022/07/20 05:28:25;;;;;;;9.67;8.67;;;22.80;1.00;;;;;;6354696;22;20450;-77
2022/07/20 05:30:58;;;;;;;11.63;10.43;;;22.90;1.00;;;;;;6353650;22;20428;-76
2022/07/20 05:33:25;;;;;;;11.10;9.53;;;23.00;1.00;;;;;;6353746;22;20408;-79
2022/07/20 05:35:55;;;;;;;9.30;8.50;;;23.00;1.00;;;;;;6354893;22;20891;-78
2022/07/20 05:38:22;;;;;;;9.80;8.90;;;23.10;1.00;;;;;;6358175;22;20547;-80
2022/07/20 05:41:00;;;;;;;11.87;9.80;;;23.20;1.00;;;;;;6355490;22;20405;-78
2022/07/20 05:43:26;;;;;;;11.20;9.97;;;23.20;1.00;;;;;;6356855;22;20393;-81
2022/07/20 05:46:01;;;;;;;13.00;9.70;;;23.30;1.00;;;;;;6357837;22;20456;-79
2022/07/20 05:48:28;;;;;;;10.87;9.90;;;23.40;1.00;;;;;;6356992;22;20532;-78
2022/07/20 05:50:58;;;;;;;11.53;9.73;;;23.50;1.00;;;;;;6354396;22;20392;-77
2022/07/20 05:53:26;;;;;;;10.30;9.33;;;23.50;1.00;;;;;;6357540;22;20416;-80
2022/07/20 05:56:01;;;;;;;10.30;9.20;;;23.60;1.00;;;;;;6353865;22;20413;-75
2022/07/20 05:58:31;;;;;;;17.50;10.77;;;23.70;1.00;;;;;;6355830;22;20435;-79
2022/07/20 06:00:59;;;;;;;10.60;9.60;;;23.80;1.00;;;;;;6356416;22;20436;-77
2022/07/20 06:03:26;;;;;;;9.43;8.60;;;24.00;1.00;;;;;;6352954;22;20861;-75
2022/07/20 06:05:55;;;;;;;11.90;8.70;;;24.10;1.00;;;;;;6353960;22;20501;-77
2022/07/20 06:08:25;;;;;;;11.73;9.53;;;24.10;1.00;;;;;;6353661;22;20806;-79
2022/07/20 06:10:59;;;;;;;10.23;9.33;;;24.20;1.00;;;;;;6355830;22;20472;-75
2022/07/20 06:13:26;;;;;;;11.07;9.97;;;24.40;1.00;;;;;;6358649;22;20413;-77
2022/07/20 06:15:57;;;;;;;13.93;12.83;;;24.50;1.00;;;;;;6354322;22;20444;-77
2022/07/20 06:18:24;;;;;;;11.00;9.67;;;24.60;1.00;;;;;;6356185;22;20464;-79
2022/07/20 06:20:59;;;;;;;11.43;10.23;;;24.70;1.00;;;;;;6355927;22;20436;-79
2022/07/20 06:23:25;;;;;;;11.70;10.03;;;24.80;1.00;;;;;;6357007;22;20412;-78
2022/07/20 06:26:03;;;;;;;10.77;9.70;;;24.90;1.00;;;;;;6355332;22;20393;-80
2022/07/20 06:28:30;;;;;;;10.63;9.73;;;25.10;1.00;;;;;;6354901;22;20444;-79
2022/07/20 06:30:59;;;;;;;10.40;9.50;;;25.20;1.00;;;;;;6354272;22;20411;-77
2022/07/20 06:33:27;;;;;;;22.00;12.90;;;25.30;1.00;;;;;;6352865;22;20465;-75
2022/07/20 06:35:58;;;;;;;10.73;9.70;;;25.50;1.00;;;;;;6352991;22;20479;-76
2022/07/20 06:38:25;;;;;;;10.83;9.43;;;25.70;1.00;;;;;;6356360;22;20382;-77
2022/07/20 06:40:59;;;;;;;11.03;9.90;;;25.80;1.00;;;;;;6352673;22;20397;-78
2022/07/20 06:43:26;;;;;;;11.00;9.53;;;25.90;1.00;;;;;;6355439;22;20413;-76
2022/07/20 06:45:58;;;;;;;12.33;9.33;;;26.00;1.00;;;;;;6354571;22;20445;-77
2022/07/20 06:48:26;;;;;;;11.30;10.20;;;26.00;1.00;;;;;;6355890;22;20914;-78
2022/07/20 06:50:54;;;;;;;10.10;9.10;;;26.10;1.00;;;;;;6354138;22;20889;-75
2022/07/20 06:53:23;;;;;;;11.17;9.67;;;26.30;1.00;;;;;;6353719;22;20425;-78
2022/07/20 06:55:50;;;;;;;10.93;9.70;;;26.40;1.00;;;;;;6351744;22;20832;-76
2022/07/20 06:58:18;;;;;;;10.67;9.67;;;26.40;1.00;;;;;;6349771;22;20512;-75
2022/07/20 07:00:45;;;;;;;10.60;9.60;;;26.40;1.00;;;;;;6348055;22;20940;-75
2022/07/20 07:03:12;;;;;;;11.90;10.30;;;26.50;1.00;;;;;;6337039;22;20416;-78
2022/07/20 07:05:43;;;;;;;11.30;10.40;;;26.60;1.00;;;;;;6353863;22;20416;-78
2022/07/20 07:08:10;;;;;;;10.27;9.10;;;26.70;1.00;;;;;;6354454;22;20420;-78
2022/07/20 07:10:42;;;;;;;11.37;10.13;;;26.80;1.00;;;;;;6342520;22;20413;-79
2022/07/20 07:13:10;;;;;;;9.97;9.17;;;26.90;1.00;;;;;;6357148;22;20405;-79
2022/07/20 07:15:42;;;;;;;10.40;9.50;;;26.90;1.00;;;;;;6359744;22;20397;-80
2022/07/20 07:18:08;;;;;;;14.43;9.93;;;27.10;1.00;;;;;;6356959;22;21229;-79
2022/07/20 07:20:42;;;;;;;13.07;9.43;;;27.30;1.00;;;;;;6358117;22;20440;-80
2022/07/20 07:23:10;;;;;;;12.73;9.60;;;27.40;1.00;;;;;;6357270;22;20409;-81
2022/07/20 07:25:42;;;;;;;11.47;9.70;;;27.60;1.00;;;;;;6354642;22;20408;-76
2022/07/20 07:28:08;;;;;;;9.97;8.97;;;27.70;1.00;;;;;;6353852;22;20466;-78
2022/07/20 07:30:40;;;;;;;12.93;9.27;;;27.90;1.00;;;;;;6340539;22;20417;-75
2022/07/20 07:33:08;;;;;;;13.33;9.57;;;28.00;1.00;;;;;;6352391;22;20421;-78
2022/07/20 07:35:38;;;;;;;11.30;9.37;;;28.20;1.00;;;;;;6355310;22;20479;-78
2022/07/20 07:38:07;;;;;;;13.87;9.77;;;28.30;1.00;;;;;;6355580;22;20496;-76
2022/07/20 07:40:34;;;;;;;9.50;8.63;;;28.40;1.00;;;;;;6354891;22;20428;-78
2022/07/20 07:43:02;;;;;;;10.10;9.20;;;28.60;1.00;;;;;;6358031;22;20462;-78
2022/07/20 07:45:29;;;;;;;10.67;9.03;;;28.70;1.00;;;;;;6357768;22;20392;-79
2022/07/20 07:47:57;;;;;;;10.10;9.07;;;28.80;1.00;;;;;;6354328;22;20417;-77
2022/07/20 07:50:29;;;;;;;7.97;7.27;;;29.00;1.00;;;;;;6353357;22;20482;-79
2022/07/20 07:52:57;;;;;;;11.70;8.97;;;29.20;1.00;;;;;;6355527;22;20532;-79
2022/07/20 07:55:27;;;;;;;9.90;8.90;;;29.20;1.00;;;;;;6354572;22;20413;-76
2022/07/20 07:57:57;;;;;;;9.87;8.87;;;29.50;1.00;;;;;;6355355;22;20854;-76
2022/07/20 08:00:24;;;;;;;10.37;8.83;;;29.60;1.00;;;;;;6358365;22;20409;-79
2022/07/20 08:02:50;;;;;;;9.33;8.13;;;29.80;1.00;;;;;;6342333;22;20948;-81
2022/07/20 08:05:17;;;;;;;11.37;8.23;;;29.80;1.00;;;;;;6358485;22;20497;-77
2022/07/20 08:07:48;;;;;;;8.53;7.70;;;29.90;1.00;;;;;;6357227;22;20489;-77
2022/07/20 08:10:23;;;;;;;11.60;8.07;;;30.00;1.00;;;;;;6314855;22;20436;-80
2022/07/20 08:12:52;;;;;;;11.17;9.13;;;30.20;1.00;;;;;;6354205;22;20495;-78
2022/07/20 08:15:19;;;;;;;9.33;8.13;;;30.50;1.00;;;;;;6354707;22;20414;-78
2022/07/20 08:17:51;;;;;;;8.90;7.70;;;30.80;1.00;;;;;;6340193;22;20452;-77
2022/07/20 08:20:24;;;;;;;9.07;8.17;;;30.90;1.00;;;;;;6354660;22;20413;-78
2022/07/20 08:22:53;;;;;;;8.80;8.00;;;31.10;1.00;;;;;;6356508;22;20404;-78
2022/07/20 08:25:21;;;;;;;13.23;8.67;;;31.30;1.00;;;;;;6357770;22;20445;-78
2022/07/20 08:27:48;;;;;;;13.43;8.37;;;31.40;1.00;;;;;;6351093;22;20413;-78
2022/07/20 08:30:17;;;;;;;8.70;7.70;;;31.60;1.00;;;;;;6354057;22;20425;-81
2022/07/20 08:32:44;;;;;;;12.60;9.00;;;31.70;1.00;;;;;;6355402;22;20409;-76
2022/07/20 08:35:12;;;;;;;7.43;6.80;;;31.80;1.00;;;;;;6353828;22;20410;-79
2022/07/20 08:37:46;;;;;;;8.87;7.40;;;31.70;1.00;;;;;;6356269;22;20424;-81
2022/07/20 08:40:22;;;;;;;9.73;7.13;;;31.80;1.00;;;;;;6353983;22;20496;-81
2022/07/20 08:42:49;;;;;;;9.37;7.50;;;32.00;1.00;;;;;;6353665;22;20504;-78
2022/07/20 08:45:17;;;;;;;8.80;7.00;;;32.10;1.00;;;;;;6354449;22;21269;-78
2022/07/20 08:47:46;;;;;;;10.30;6.40;;;32.30;1.00;;;;;;6354568;22;20414;-76
2022/07/20 08:50:18;;;;;;;14.70;7.27;;;32.50;1.00;;;;;;6352578;22;20418;-78
2022/07/20 08:52:47;;;;;;;8.20;6.50;;;32.70;1.00;;;;;;6354216;22;20409;-77
2022/07/20 08:55:17;;;;;;;12.03;8.10;;;32.90;1.00;;;;;;6355433;22;20433;-78
2022/07/20 08:57:47;;;;;;;6.70;6.20;;;33.00;1.00;;;;;;6354113;22;20490;-78
2022/07/20 09:00:21;;;;;;;6.73;6.03;;;33.10;1.00;;;;;;6356336;22;20468;-78
2022/07/20 09:02:50;;;;;;;6.20;5.70;;;33.30;1.00;;;;;;6354024;22;20412;-78
2022/07/20 09:05:23;;;;;;;10.63;6.40;;;33.40;1.00;;;;;;6355522;22;20413;-79
2022/07/20 09:07:51;;;;;;;7.93;6.53;;;33.60;1.00;;;;;;6354628;22;20421;-78
2022/07/20 09:10:24;;;;;;;6.83;6.13;;;33.80;1.00;;;;;;6355627;22;20460;-78
2022/07/20 09:13:01;;;;;;;8.00;5.80;;;33.90;1.00;;;;;;6354008;22;20824;-81
2022/07/20 09:15:44;;;;;;;6.87;6.17;;;34.10;1.00;;;;;;6356298;22;21254;-76
2022/07/20 09:18:17;;;;;;;8.80;6.63;;;34.20;1.00;;;;;;6354792;22;20408;-79
2022/07/20 09:20:48;;;;;;;9.23;6.30;;;34.40;1.00;;;;;;6353291;22;20452;-78
2022/07/20 09:23:22;;;;;;;7.83;6.30;;;34.40;1.00;;;;;;6357364;22;20452;-78
2022/07/20 09:26:04;;;;;;;5.87;5.27;;;34.60;1.00;;;;;;6353602;22;20421;-79
2022/07/20 09:28:42;;;;;;;5.23;4.73;;;34.90;1.00;;;;;;6355760;22;20417;-78
2022/07/20 09:31:13;;;;;;;8.50;5.00;;;34.90;1.00;;;;;;6354230;22;20440;-77
2022/07/20 09:33:50;;;;;;;8.23;5.90;;;35.00;1.00;;;;;;6354858;22;20420;-79
2022/07/20 09:36:24;;;;;;;6.13;5.20;;;35.00;1.00;;;;;;6352981;22;20418;-77
2022/07/20 09:38:51;;;;;;;5.50;4.83;;;35.20;1.00;;;;;;6350105;22;20445;-80
2022/07/20 09:41:28;;;;;;;8.00;6.17;;;35.60;1.00;;;;;;6354960;22;20389;-76
2022/07/20 09:44:00;;;;;;;7.70;5.33;;;36.80;1.00;;;;;;6354761;22;20453;-81
2022/07/20 09:46:35;;;;;;;7.63;5.50;;;38.20;1.00;;;;;;6357059;22;20400;-79
2022/07/20 09:49:04;;;;;;;6.30;4.70;;;39.50;1.00;;;;;;6337564;22;20910;-79
2022/07/20 09:51:34;;;;;;;5.17;4.67;;;40.70;1.00;;;;;;6355201;22;20384;-79
2022/07/20 09:54:10;;;;;;;9.20;5.43;;;41.60;1.00;;;;;;6353119;22;20995;-78
2022/07/20 09:56:40;;;;;;;7.30;5.13;;;42.50;1.00;;;;;;6352907;22;20420;-78
2022/07/20 09:59:14;;;;;;;5.33;4.83;;;43.40;1.00;;;;;;6355240;22;20825;-80
2022/07/20 10:01:46;;;;;;;8.37;5.70;;;44.20;1.00;;;;;;6352868;22;20450;-76
2022/07/20 10:04:15;;;;;;;5.93;4.80;;;44.80;1.00;;;;;;6352140;22;20984;-82
2022/07/20 10:06:44;;;;;;;6.33;4.20;;;45.30;1.00;;;;;;6355744;22;20455;-79
2022/07/20 10:09:11;;;;;;;6.70;5.47;;;44.80;1.00;;;;;;6353902;22;20425;-79
2022/07/20 10:11:45;;;;;;;6.27;4.37;;;44.60;1.00;;;;;;6352886;22;20404;-82
2022/07/20 10:14:14;;;;;;;6.67;4.57;;;45.00;1.00;;;;;;6355402;22;20924;-79
2022/07/20 10:16:46;;;;;;;5.90;4.73;;;45.60;1.00;;;;;;6355517;22;20397;-78
2022/07/20 10:19:13;;;;;;;5.10;4.67;;;45.90;1.00;;;;;;6355239;22;20414;-78
2022/07/20 10:21:45;;;;;;;8.23;4.90;;;45.90;1.00;;;;;;6354360;22;20401;-82
2022/07/20 10:24:25;;;;;;;8.53;4.97;;;46.20;1.00;;;;;;6354161;22;20489;-82
2022/07/20 10:27:01;;;;;;;5.33;4.30;;;46.50;1.00;;;;;;6354455;22;20975;-79
2022/07/20 10:29:33;;;;;;;4.63;4.23;;;46.00;1.00;;;;;;6355154;22;20824;-82
2022/07/20 10:32:20;;;;;;;4.93;4.50;;;46.00;1.00;;;;;;6355080;22;20412;-82
2022/07/20 10:34:49;;;;;;;4.87;4.47;;;46.00;1.00;;;;;;6353057;22;20425;-78
2022/07/20 10:37:30;;;;;;;5.47;4.20;;;45.80;1.00;;;;;;6353242;22;21047;-79
2022/07/20 10:40:10;;;;;;;8.20;4.60;;;46.40;1.00;;;;;;6354119;22;20389;-77
2022/07/20 10:42:43;;;;;;;5.83;4.27;;;46.00;1.00;;;;;;6353461;22;20865;-81
2022/07/20 10:45:33;;;;;;;4.80;4.40;;;46.30;1.00;;;;;;6354071;22;20875;-82
2022/07/20 10:48:19;;;;;;;5.60;4.00;;;46.60;1.00;;;;;;6352034;22;20412;-76
2022/07/20 10:50:52;;;;;;;4.67;3.80;;;46.00;1.00;;;;;;6350564;22;20440;-77
2022/07/20 10:53:42;;;;;;;7.00;4.40;;;46.20;1.00;;;;;;6356156;22;20432;-81
2022/07/20 10:56:12;;;;;;;5.23;4.40;;;46.90;1.00;;;;;;6355710;22;20581;-77
2022/07/20 10:58:44;;;;;;;4.63;4.23;;;47.30;1.00;;;;;;6352908;22;20438;-77
2022/07/20 11:01:14;;;;;;;5.07;4.43;;;47.80;1.00;;;;;;6355288;22;20397;-79
2022/07/20 11:03:42;;;;;;;4.53;4.13;;;47.20;1.00;;;;;;6356512;22;20436;-82
2022/07/20 11:06:14;;;;;;;4.87;3.80;;;47.50;1.00;;;;;;6352178;22;20405;-78
2022/07/20 11:08:43;;;;;;;5.83;4.47;;;47.70;1.00;;;;;;6352167;22;20414;-76
2022/07/20 11:11:16;;;;;;;4.40;3.80;;;48.00;1.00;;;;;;6351022;22;20448;-76
2022/07/20 11:13:47;;;;;;;7.23;4.60;;;47.90;1.00;;;;;;6354160;22;20401;-81
2022/07/20 11:16:14;;;;;;;5.33;4.30;;;48.20;1.00;;;;;;6353346;22;20410;-78
2022/07/20 11:18:45;;;;;;;4.80;4.40;;;48.50;1.00;;;;;;6352527;22;20400;-76
2022/07/20 11:21:13;;;;;;;5.30;4.10;;;48.60;1.00;;;;;;6352871;22;20419;-80
2022/07/20 11:23:44;;;;;;;6.50;5.20;;;48.70;1.00;;;;;;6354769;22;20411;-80
2022/07/20 11:26:13;;;;;;;4.80;4.30;;;49.20;1.00;;;;;;6351565;22;20425;-76
2022/07/20 11:28:47;;;;;;;5.50;4.20;;;49.20;1.00;;;;;;6352414;22;20440;-78
2022/07/20 11:31:21;;;;;;;5.23;4.00;;;50.00;1.00;;;;;;6354130;22;20987;-79
2022/07/20 11:33:50;;;;;;;5.50;4.67;;;50.30;1.00;;;;;;6352591;22;20487;-79
2022/07/20 11:36:24;;;;;;;4.27;3.83;;;50.10;1.00;;;;;;6354232;22;20448;-79
2022/07/20 11:38:55;;;;;;;4.33;3.93;;;49.50;1.00;;;;;;6353559;22;20377;-78
2022/07/20 11:41:34;;;;;;;4.17;3.87;;;49.60;1.00;;;;;;6356886;22;20412;-79
2022/07/20 11:44:09;;;;;;;4.53;4.13;;;49.70;1.00;;;;;;6354923;22;20417;-81
2022/07/20 11:46:43;;;;;;;4.40;4.00;;;49.60;1.00;;;;;;6355955;22;20381;-79
2022/07/20 11:49:13;;;;;;;5.13;4.00;;;50.00;1.00;;;;;;6353895;22;20420;-79
2022/07/20 11:51:46;;;;;;;6.03;4.43;;;49.80;1.00;;;;;;6356697;22;20378;-81
2022/07/20 11:54:22;;;;;;;4.60;4.20;;;50.10;1.00;;;;;;6354329;22;20432;-79
2022/07/20 11:56:50;;;;;;;4.50;4.10;;;50.40;1.00;;;;;;6353101;22;20417;-81
2022/07/20 11:59:23;;;;;;;4.53;4.23;;;50.30;1.00;;;;;;6356141;22;20906;-78
2022/07/20 12:01:52;;;;;;;4.87;4.40;;;50.10;1.00;;;;;;6353618;22;20393;-78
2022/07/20 12:04:24;;;;;;;9.07;5.90;;;50.30;1.00;;;;;;6352705;22;20381;-80
2022/07/20 12:06:53;;;;;;;5.10;4.57;;;50.60;1.00;;;;;;6352166;22;20417;-81
2022/07/20 12:09:21;;;;;;;5.40;4.30;;;50.80;1.00;;;;;;6353742;22;20433;-78
2022/07/20 12:12:01;;;;;;;6.83;3.97;;;50.80;1.00;;;;;;6354091;22;20401;-79
2022/07/20 12:14:34;;;;;;;4.67;4.27;;;51.20;1.00;;;;;;6356621;22;20776;-80
2022/07/20 12:17:12;;;;;;;4.50;4.10;;;51.00;1.00;;;;;;6355681;22;20391;-77
2022/07/20 12:19:44;;;;;;;4.03;3.70;;;51.20;1.00;;;;;;6354435;22;20381;-83
2022/07/20 12:22:16;;;;;;;5.20;4.37;;;51.40;1.00;;;;;;6354661;22;20742;-80
2022/07/20 12:24:54;;;;;;;7.53;5.23;;;51.90;1.00;;;;;;6354418;22;20408;-78
2022/07/20 12:27:24;;;;;;;3.90;3.60;;;51.90;1.00;;;;;;6353103;22;20385;-79
2022/07/20 12:29:56;;;;;;;5.63;4.70;;;51.10;1.00;;;;;;6353093;22;20505;-77
2022/07/20 12:32:29;;;;;;;5.70;3.90;;;49.70;1.00;;;;;;6355535;22;20377;-81
2022/07/20 12:34:59;;;;;;;5.10;4.00;;;49.40;1.00;;;;;;6355014;22;20483;-79
2022/07/20 12:37:50;;;;;;;4.30;3.90;;;49.90;1.00;;;;;;6357368;22;20417;-81
2022/07/20 12:40:35;;;;;;;4.77;4.10;;;50.50;1.00;;;;;;6354188;22;20414;-77
2022/07/20 12:43:03;;;;;;;6.83;4.50;;;50.40;1.00;;;;;;6355151;22;20373;-77
2022/07/20 12:45:32;;;;;;;4.23;3.83;;;50.50;1.00;;;;;;6351758;22;20929;-76
2022/07/20 12:48:03;;;;;;;6.53;3.70;;;50.60;1.00;;;;;;6351636;22;20393;-76
2022/07/20 12:50:30;;;;;;;4.57;4.13;;;50.30;1.00;;;;;;6351199;22;20418;-76
2022/07/20 12:52:59;;;;;;;8.20;3.93;;;50.10;1.00;;;;;;6331043;22;20425;-76
2022/07/20 12:55:26;;;;;;;6.43;5.00;;;49.30;1.00;;;;;;6346120;22;20429;-77
2022/07/20 12:57:53;;;;;;;5.27;4.23;;;48.40;1.00;;;;;;6350826;22;20424;-77
2022/07/20 13:00:20;;;;;;;4.23;3.83;;;47.70;1.00;;;;;;6351458;22;20444;-76
2022/07/20 13:02:48;;;;;;;4.50;4.10;;;47.30;1.00;;;;;;6346796;22;20424;-78
2022/07/20 13:05:15;;;;;;;5.37;4.30;;;47.60;1.00;;;;;;6347157;22;20427;-77
2022/07/20 13:07:46;;;;;;;4.37;3.97;;;47.70;1.00;;;;;;6352022;22;20397;-80
2022/07/20 13:10:13;;;;;;;4.43;4.10;;;47.40;1.00;;;;;;6342578;22;20420;-82